sensor_id;sensor_type;location;lat;lon;timestamp;temperature;humidity
37702;DHT22;23548;51.196;6.838;2023-04-03T00:01:33;1.80;99.90
37702;DHT22;23548;51.196;6.838;2023-04-03T00:03:59;1.80;99.90
37702;DHT22;23548;51.196;6.838;2023-04-03T00:06:25;1.80;99.90
37702;DHT22;23548;51.196;6.838;2023-04-03T00:08:52;1.70;99.90
37702;DHT22;23548;51.196;6.838;2023-04-03T00:11:18;1.70;99.90
37702;DHT22;23548;51.196;6.838;2023-04-03T00:13:44;1.70;99.90
37702;DHT22;23548;51.196;6.838;2023-04-03T00:16:11;1.70;99.90
37702;DHT22;23548;51.196;6.838;2023-04-03T00:18:38;1.60;99.90
37702;DHT22;23548;51.196;6.838;2023-04-03T00:21:04;1.60;99.90
37702;DHT22;23548;51.196;6.838;2023-04-03T00:23:30;1.50;99.90
37702;DHT22;23548;51.196;6.838;2023-04-03T00:25:56;1.40;99.90
37702;DHT22;23548;51.196;6.838;2023-04-03T00:28:22;1.40;99.90
37702;DHT22;23548;51.196;6.838;2023-04-03T00:30:52;1.40;99.90
37702;DHT22;23548;51.196;6.838;2023-04-03T00:33:18;1.40;99.90
37702;DHT22;23548;51.196;6.838;2023-04-03T00:35:47;1.40;99.90
37702;DHT22;23548;51.196;6.838;2023-04-03T00:38:13;1.40;99.90
37702;DHT22;23548;51.196;6.838;2023-04-03T00:40:43;1.40;99.90
37702;DHT22;23548;51.196;6.838;2023-04-03T00:43:16;1.40;99.90
37702;DHT22;23548;51.196;6.838;2023-04-03T00:45:44;1.40;99.90
37702;DHT22;23548;51.196;6.838;2023-04-03T00:48:17;1.50;99.90
37702;DHT22;23548;51.196;6.838;2023-04-03T00:50:44;1.40;99.90
37702;DHT22;23548;51.196;6.838;2023-04-03T00:53:14;1.30;99.90
37702;DHT22;23548;51.196;6.838;2023-04-03T00:55:43;1.20;99.90
37702;DHT22;23548;51.196;6.838;2023-04-03T00:58:10;1.20;99.90
37702;DHT22;23548;51.196;6.838;2023-04-03T01:00:39;1.10;99.90
37702;DHT22;23548;51.196;6.838;2023-04-03T01:03:07;1.00;99.90
37702;DHT22;23548;51.196;6.838;2023-04-03T01:05:33;1.00;99.90
37702;DHT22;23548;51.196;6.838;2023-04-03T01:07:59;1.10;99.90
37702;DHT22;23548;51.196;6.838;2023-04-03T01:10:25;1.10;99.90
37702;DHT22;23548;51.196;6.838;2023-04-03T01:12:52;1.10;99.90
37702;DHT22;23548;51.196;6.838;2023-04-03T01:15:28;1.00;99.90
37702;DHT22;23548;51.196;6.838;2023-04-03T01:18:15;1.00;99.90
37702;DHT22;23548;51.196;6.838;2023-04-03T01:21:03;1.00;99.90
37702;DHT22;23548;51.196;6.838;2023-04-03T01:23:58;0.90;99.90
37702;DHT22;23548;51.196;6.838;2023-04-03T01:26:25;0.90;99.90
37702;DHT22;23548;51.196;6.838;2023-04-03T01:28:54;1.40;99.90
37702;DHT22;23548;51.196;6.838;2023-04-03T01:33:50;1.00;99.90
37702;DHT22;23548;51.196;6.838;2023-04-03T01:36:19;1.00;99.90
37702;DHT22;23548;51.196;6.838;2023-04-03T01:38:46;1.00;99.90
37702;DHT22;23548;51.196;6.838;2023-04-03T01:41:12;1.00;99.90
37702;DHT22;23548;51.196;6.838;2023-04-03T01:43:37;1.00;99.90
37702;DHT22;23548;51.196;6.838;2023-04-03T01:46:03;1.10;99.90
37702;DHT22;23548;51.196;6.838;2023-04-03T01:48:29;1.20;99.90
37702;DHT22;23548;51.196;6.838;2023-04-03T01:50:55;1.20;99.90
37702;DHT22;23548;51.196;6.838;2023-04-03T01:53:20;1.20;99.90
37702;DHT22;23548;51.196;6.838;2023-04-03T01:55:46;1.20;99.90
37702;DHT22;23548;51.196;6.838;2023-04-03T01:58:12;1.20;99.90
37702;DHT22;23548;51.196;6.838;2023-04-03T02:00:38;1.20;99.90
37702;DHT22;23548;51.196;6.838;2023-04-03T02:03:04;1.40;99.90
37702;DHT22;23548;51.196;6.838;2023-04-03T02:05:29;1.50;99.90
37702;DHT22;23548;51.196;6.838;2023-04-03T02:07:55;1.50;99.90
37702;DHT22;23548;51.196;6.838;2023-04-03T02:10:21;1.60;99.90
37702;DHT22;23548;51.196;6.838;2023-04-03T02:12:47;1.60;99.90
37702;DHT22;23548;51.196;6.838;2023-04-03T02:15:13;1.60;99.90
37702;DHT22;23548;51.196;6.838;2023-04-03T02:17:38;1.70;99.90
37702;DHT22;23548;51.196;6.838;2023-04-03T02:20:04;1.80;99.90
37702;DHT22;23548;51.196;6.838;2023-04-03T02:22:30;1.70;99.90
37702;DHT22;23548;51.196;6.838;2023-04-03T02:24:56;1.80;99.90
37702;DHT22;23548;51.196;6.838;2023-04-03T02:27:22;1.80;99.90
37702;DHT22;23548;51.196;6.838;2023-04-03T02:29:47;1.80;99.90
37702;DHT22;23548;51.196;6.838;2023-04-03T02:32:14;1.80;99.90
37702;DHT22;23548;51.196;6.838;2023-04-03T02:34:39;1.90;99.90
37702;DHT22;23548;51.196;6.838;2023-04-03T02:37:05;2.00;99.90
37702;DHT22;23548;51.196;6.838;2023-04-03T02:39:31;2.00;99.90
37702;DHT22;23548;51.196;6.838;2023-04-03T02:41:57;2.10;99.90
37702;DHT22;23548;51.196;6.838;2023-04-03T02:44:23;2.20;99.90
37702;DHT22;23548;51.196;6.838;2023-04-03T02:46:49;2.30;99.90
37702;DHT22;23548;51.196;6.838;2023-04-03T02:49:15;2.30;99.90
37702;DHT22;23548;51.196;6.838;2023-04-03T02:51:41;2.40;99.90
37702;DHT22;23548;51.196;6.838;2023-04-03T02:54:07;2.40;99.90
37702;DHT22;23548;51.196;6.838;2023-04-03T02:56:33;2.50;99.90
37702;DHT22;23548;51.196;6.838;2023-04-03T02:58:59;2.40;99.90
37702;DHT22;23548;51.196;6.838;2023-04-03T03:01:24;2.40;99.90
37702;DHT22;23548;51.196;6.838;2023-04-03T03:03:52;2.50;99.90
37702;DHT22;23548;51.196;6.838;2023-04-03T03:06:18;2.40;99.90
37702;DHT22;23548;51.196;6.838;2023-04-03T03:08:43;2.40;99.90
37702;DHT22;23548;51.196;6.838;2023-04-03T03:11:10;2.40;99.90
37702;DHT22;23548;51.196;6.838;2023-04-03T03:13:36;2.40;99.90
37702;DHT22;23548;51.196;6.838;2023-04-03T03:16:02;2.40;99.90
37702;DHT22;23548;51.196;6.838;2023-04-03T03:18:29;2.40;99.90
37702;DHT22;23548;51.196;6.838;2023-04-03T03:20:56;2.40;99.90
37702;DHT22;23548;51.196;6.838;2023-04-03T03:23:24;2.40;99.90
37702;DHT22;23548;51.196;6.838;2023-04-03T03:25:55;2.40;99.90
37702;DHT22;23548;51.196;6.838;2023-04-03T03:28:21;2.40;99.90
37702;DHT22;23548;51.196;6.838;2023-04-03T03:30:47;2.30;99.90
37702;DHT22;23548;51.196;6.838;2023-04-03T03:33:13;2.40;99.90
37702;DHT22;23548;51.196;6.838;2023-04-03T03:35:38;2.40;99.90
37702;DHT22;23548;51.196;6.838;2023-04-03T03:38:04;2.30;99.90
37702;DHT22;23548;51.196;6.838;2023-04-03T03:40:30;2.30;99.90
37702;DHT22;23548;51.196;6.838;2023-04-03T03:42:55;2.30;99.90
37702;DHT22;23548;51.196;6.838;2023-04-03T03:45:21;2.30;99.90
37702;DHT22;23548;51.196;6.838;2023-04-03T03:47:47;2.20;99.90
37702;DHT22;23548;51.196;6.838;2023-04-03T03:50:13;2.20;99.90
37702;DHT22;23548;51.196;6.838;2023-04-03T03:52:39;2.20;99.90
37702;DHT22;23548;51.196;6.838;2023-04-03T03:55:05;2.20;99.90
37702;DHT22;23548;51.196;6.838;2023-04-03T03:57:31;2.10;99.90
37702;DHT22;23548;51.196;6.838;2023-04-03T03:59:57;2.10;99.90
37702;DHT22;23548;51.196;6.838;2023-04-03T04:02:22;2.00;99.90
37702;DHT22;23548;51.196;6.838;2023-04-03T04:04:48;2.10;99.90
37702;DHT22;23548;51.196;6.838;2023-04-03T04:07:14;2.00;99.90
37702;DHT22;23548;51.196;6.838;2023-04-03T04:09:40;2.10;99.90
37702;DHT22;23548;51.196;6.838;2023-04-03T04:12:05;2.00;99.90
37702;DHT22;23548;51.196;6.838;2023-04-03T04:14:31;2.00;99.90
37702;DHT22;23548;51.196;6.838;2023-04-03T04:16:57;2.00;99.90
37702;DHT22;23548;51.196;6.838;2023-04-03T04:19:22;1.90;99.90
37702;DHT22;23548;51.196;6.838;2023-04-03T04:21:48;1.90;99.90
37702;DHT22;23548;51.196;6.838;2023-04-03T04:24:15;1.90;99.90
37702;DHT22;23548;51.196;6.838;2023-04-03T04:26:40;1.90;99.90
37702;DHT22;23548;51.196;6.838;2023-04-03T04:29:08;1.90;99.90
37702;DHT22;23548;51.196;6.838;2023-04-03T04:31:34;1.90;99.90
37702;DHT22;23548;51.196;6.838;2023-04-03T04:33:59;1.90;99.90
37702;DHT22;23548;51.196;6.838;2023-04-03T04:36:25;1.90;99.90
37702;DHT22;23548;51.196;6.838;2023-04-03T04:38:51;1.80;99.90
37702;DHT22;23548;51.196;6.838;2023-04-03T04:41:20;1.80;99.90
37702;DHT22;23548;51.196;6.838;2023-04-03T04:43:48;1.90;99.90
37702;DHT22;23548;51.196;6.838;2023-04-03T04:46:14;1.80;99.90
37702;DHT22;23548;51.196;6.838;2023-04-03T04:48:40;1.80;99.90
37702;DHT22;23548;51.196;6.838;2023-04-03T04:51:06;1.80;99.90
37702;DHT22;23548;51.196;6.838;2023-04-03T04:53:32;1.80;99.90
37702;DHT22;23548;51.196;6.838;2023-04-03T04:55:58;1.80;99.90
37702;DHT22;23548;51.196;6.838;2023-04-03T04:58:24;1.80;99.90
37702;DHT22;23548;51.196;6.838;2023-04-03T05:01:08;1.80;99.90
37702;DHT22;23548;51.196;6.838;2023-04-03T05:03:34;1.70;99.90
37702;DHT22;23548;51.196;6.838;2023-04-03T05:06:00;1.70;99.90
37702;DHT22;23548;51.196;6.838;2023-04-03T05:08:25;1.70;99.90
37702;DHT22;23548;51.196;6.838;2023-04-03T05:10:51;1.70;99.90
37702;DHT22;23548;51.196;6.838;2023-04-03T05:13:18;1.80;99.90
37702;DHT22;23548;51.196;6.838;2023-04-03T05:15:44;1.80;99.90
37702;DHT22;23548;51.196;6.838;2023-04-03T05:18:10;1.80;99.90
37702;DHT22;23548;51.196;6.838;2023-04-03T05:20:36;1.80;99.90
37702;DHT22;23548;51.196;6.838;2023-04-03T05:23:02;1.80;99.90
37702;DHT22;23548;51.196;6.838;2023-04-03T05:25:28;1.90;99.90
37702;DHT22;23548;51.196;6.838;2023-04-03T05:27:54;1.90;99.90
37702;DHT22;23548;51.196;6.838;2023-04-03T05:30:20;1.90;99.90
37702;DHT22;23548;51.196;6.838;2023-04-03T05:32:45;1.90;99.90
37702;DHT22;23548;51.196;6.838;2023-04-03T05:35:11;1.90;99.90
37702;DHT22;23548;51.196;6.838;2023-04-03T05:37:37;1.90;99.90
37702;DHT22;23548;51.196;6.838;2023-04-03T05:40:04;1.90;99.90
37702;DHT22;23548;51.196;6.838;2023-04-03T05:42:30;2.00;99.90
37702;DHT22;23548;51.196;6.838;2023-04-03T05:44:56;2.00;99.90
37702;DHT22;23548;51.196;6.838;2023-04-03T05:47:22;2.00;99.90
37702;DHT22;23548;51.196;6.838;2023-04-03T05:49:47;2.00;99.90
37702;DHT22;23548;51.196;6.838;2023-04-03T05:52:28;2.00;99.90
37702;DHT22;23548;51.196;6.838;2023-04-03T05:54:54;2.10;99.90
37702;DHT22;23548;51.196;6.838;2023-04-03T05:57:20;2.20;99.90
37702;DHT22;23548;51.196;6.838;2023-04-03T05:59:47;2.20;99.90
37702;DHT22;23548;51.196;6.838;2023-04-03T06:02:16;2.20;99.90
37702;DHT22;23548;51.196;6.838;2023-04-03T06:04:42;2.30;99.90
37702;DHT22;23548;51.196;6.838;2023-04-03T06:07:15;2.30;99.90
37702;DHT22;23548;51.196;6.838;2023-04-03T06:09:42;2.40;99.90
37702;DHT22;23548;51.196;6.838;2023-04-03T06:12:08;2.40;99.90
37702;DHT22;23548;51.196;6.838;2023-04-03T06:14:34;2.50;99.90
37702;DHT22;23548;51.196;6.838;2023-04-03T06:17:01;2.50;99.90
37702;DHT22;23548;51.196;6.838;2023-04-03T06:19:27;2.60;99.90
37702;DHT22;23548;51.196;6.838;2023-04-03T06:21:53;2.60;99.90
37702;DHT22;23548;51.196;6.838;2023-04-03T06:24:19;2.60;99.90
37702;DHT22;23548;51.196;6.838;2023-04-03T06:26:47;2.60;99.90
37702;DHT22;23548;51.196;6.838;2023-04-03T06:29:13;2.60;99.90
37702;DHT22;23548;51.196;6.838;2023-04-03T06:31:39;2.70;99.90
37702;DHT22;23548;51.196;6.838;2023-04-03T06:34:05;2.70;99.90
37702;DHT22;23548;51.196;6.838;2023-04-03T06:36:33;2.80;99.90
37702;DHT22;23548;51.196;6.838;2023-04-03T06:38:58;2.80;99.90
37702;DHT22;23548;51.196;6.838;2023-04-03T06:41:24;2.90;99.90
37702;DHT22;23548;51.196;6.838;2023-04-03T06:43:51;3.00;99.90
37702;DHT22;23548;51.196;6.838;2023-04-03T06:46:19;3.00;99.90
37702;DHT22;23548;51.196;6.838;2023-04-03T06:48:45;3.10;99.90
37702;DHT22;23548;51.196;6.838;2023-04-03T06:51:20;3.20;99.90
37702;DHT22;23548;51.196;6.838;2023-04-03T06:53:50;3.10;99.90
37702;DHT22;23548;51.196;6.838;2023-04-03T06:56:17;3.30;99.90
37702;DHT22;23548;51.196;6.838;2023-04-03T06:58:44;3.40;99.90
37702;DHT22;23548;51.196;6.838;2023-04-03T07:01:11;3.50;99.90
37702;DHT22;23548;51.196;6.838;2023-04-03T07:03:37;3.60;99.90
37702;DHT22;23548;51.196;6.838;2023-04-03T07:06:04;3.70;99.90
37702;DHT22;23548;51.196;6.838;2023-04-03T07:08:31;3.80;99.90
37702;DHT22;23548;51.196;6.838;2023-04-03T07:10:56;3.80;99.90
37702;DHT22;23548;51.196;6.838;2023-04-03T07:13:22;3.70;99.90
37702;DHT22;23548;51.196;6.838;2023-04-03T07:15:48;3.70;99.90
37702;DHT22;23548;51.196;6.838;2023-04-03T07:18:14;3.70;99.90
37702;DHT22;23548;51.196;6.838;2023-04-03T07:20:40;3.90;99.90
37702;DHT22;23548;51.196;6.838;2023-04-03T07:23:09;3.90;99.90
37702;DHT22;23548;51.196;6.838;2023-04-03T07:25:36;4.00;99.90
37702;DHT22;23548;51.196;6.838;2023-04-03T07:28:03;4.00;99.90
37702;DHT22;23548;51.196;6.838;2023-04-03T07:30:29;4.10;99.90
37702;DHT22;23548;51.196;6.838;2023-04-03T07:33:18;4.20;99.90
37702;DHT22;23548;51.196;6.838;2023-04-03T07:35:44;4.20;99.90
37702;DHT22;23548;51.196;6.838;2023-04-03T07:38:10;4.30;99.90
37702;DHT22;23548;51.196;6.838;2023-04-03T07:40:37;4.30;99.90
37702;DHT22;23548;51.196;6.838;2023-04-03T07:43:04;4.50;99.90
37702;DHT22;23548;51.196;6.838;2023-04-03T07:45:32;4.50;99.90
37702;DHT22;23548;51.196;6.838;2023-04-03T07:48:00;4.50;99.90
37702;DHT22;23548;51.196;6.838;2023-04-03T07:50:26;4.70;99.90
37702;DHT22;23548;51.196;6.838;2023-04-03T07:52:52;4.80;99.90
37702;DHT22;23548;51.196;6.838;2023-04-03T07:55:20;4.90;99.90
37702;DHT22;23548;51.196;6.838;2023-04-03T07:57:45;4.90;99.90
37702;DHT22;23548;51.196;6.838;2023-04-03T08:00:12;4.90;99.90
37702;DHT22;23548;51.196;6.838;2023-04-03T08:02:38;4.90;99.90
37702;DHT22;23548;51.196;6.838;2023-04-03T08:05:05;5.00;99.90
37702;DHT22;23548;51.196;6.838;2023-04-03T08:07:30;5.00;99.90
37702;DHT22;23548;51.196;6.838;2023-04-03T08:09:56;5.10;99.90
37702;DHT22;23548;51.196;6.838;2023-04-03T08:12:22;5.20;99.90
37702;DHT22;23548;51.196;6.838;2023-04-03T08:14:48;5.20;99.90
37702;DHT22;23548;51.196;6.838;2023-04-03T08:17:13;5.30;99.90
37702;DHT22;23548;51.196;6.838;2023-04-03T08:19:40;5.40;99.90
37702;DHT22;23548;51.196;6.838;2023-04-03T08:22:06;5.50;99.90
37702;DHT22;23548;51.196;6.838;2023-04-03T08:24:33;5.50;99.90
37702;DHT22;23548;51.196;6.838;2023-04-03T08:26:59;5.60;99.90
37702;DHT22;23548;51.196;6.838;2023-04-03T08:29:25;5.60;99.90
37702;DHT22;23548;51.196;6.838;2023-04-03T08:31:51;5.60;99.90
37702;DHT22;23548;51.196;6.838;2023-04-03T08:34:18;5.60;99.90
37702;DHT22;23548;51.196;6.838;2023-04-03T08:36:44;5.60;99.90
37702;DHT22;23548;51.196;6.838;2023-04-03T08:39:11;5.80;99.90
37702;DHT22;23548;51.196;6.838;2023-04-03T08:41:42;5.80;99.90
37702;DHT22;23548;51.196;6.838;2023-04-03T08:46:50;6.00;99.90
37702;DHT22;23548;51.196;6.838;2023-04-03T08:49:29;6.10;99.90
37702;DHT22;23548;51.196;6.838;2023-04-03T08:51:59;6.20;99.90
37702;DHT22;23548;51.196;6.838;2023-04-03T08:54:40;6.10;99.90
37702;DHT22;23548;51.196;6.838;2023-04-03T08:57:13;6.10;99.90
37702;DHT22;23548;51.196;6.838;2023-04-03T09:00:05;6.30;99.90
37702;DHT22;23548;51.196;6.838;2023-04-03T09:02:46;6.20;99.90
37702;DHT22;23548;51.196;6.838;2023-04-03T09:05:16;6.30;99.90
37702;DHT22;23548;51.196;6.838;2023-04-03T09:07:46;6.20;99.90
37702;DHT22;23548;51.196;6.838;2023-04-03T09:10:27;6.40;99.90
37702;DHT22;23548;51.196;6.838;2023-04-03T09:15:38;6.40;99.90
37702;DHT22;23548;51.196;6.838;2023-04-03T09:18:12;6.50;99.90
37702;DHT22;23548;51.196;6.838;2023-04-03T09:23:44;6.50;99.90
37702;DHT22;23548;51.196;6.838;2023-04-03T09:26:34;6.70;99.90
37702;DHT22;23548;51.196;6.838;2023-04-03T09:29:06;6.90;99.90
37702;DHT22;23548;51.196;6.838;2023-04-03T09:31:43;6.70;99.90
37702;DHT22;23548;51.196;6.838;2023-04-03T09:34:36;6.70;99.90
37702;DHT22;23548;51.196;6.838;2023-04-03T09:37:04;6.50;99.90
37702;DHT22;23548;51.196;6.838;2023-04-03T09:39:46;6.80;99.90
37702;DHT22;23548;51.196;6.838;2023-04-03T09:42:21;6.90;99.90
37702;DHT22;23548;51.196;6.838;2023-04-03T09:45:00;7.00;99.90
37702;DHT22;23548;51.196;6.838;2023-04-03T09:47:32;7.20;99.90
37702;DHT22;23548;51.196;6.838;2023-04-03T09:50:19;7.10;99.90
37702;DHT22;23548;51.196;6.838;2023-04-03T09:52:48;7.30;99.90
37702;DHT22;23548;51.196;6.838;2023-04-03T09:55:14;7.10;99.90
37702;DHT22;23548;51.196;6.838;2023-04-03T09:57:41;7.20;99.90
37702;DHT22;23548;51.196;6.838;2023-04-03T10:00:23;7.20;99.90
37702;DHT22;23548;51.196;6.838;2023-04-03T10:02:53;7.30;99.90
37702;DHT22;23548;51.196;6.838;2023-04-03T10:10:34;7.50;99.80
37702;DHT22;23548;51.196;6.838;2023-04-03T10:13:16;7.50;99.90
37702;DHT22;23548;51.196;6.838;2023-04-03T10:15:59;7.60;99.70
37702;DHT22;23548;51.196;6.838;2023-04-03T10:18:43;7.60;99.90
37702;DHT22;23548;51.196;6.838;2023-04-03T10:22:15;7.70;99.90
37702;DHT22;23548;51.196;6.838;2023-04-03T10:30:18;7.90;99.20
37702;DHT22;23548;51.196;6.838;2023-04-03T10:41:23;8.10;98.80
37702;DHT22;23548;51.196;6.838;2023-04-03T10:54:22;8.30;93.40
37702;DHT22;23548;51.196;6.838;2023-04-03T10:57:01;8.20;90.90
37702;DHT22;23548;51.196;6.838;2023-04-03T11:02:32;8.30;90.50
37702;DHT22;23548;51.196;6.838;2023-04-03T11:07:46;8.30;88.40
37702;DHT22;23548;51.196;6.838;2023-04-03T11:10:21;8.30;89.80
37702;DHT22;23548;51.196;6.838;2023-04-03T11:12:54;8.30;86.70
37702;DHT22;23548;51.196;6.838;2023-04-03T11:15:23;8.40;91.00
37702;DHT22;23548;51.196;6.838;2023-04-03T11:18:04;8.60;91.00
37702;DHT22;23548;51.196;6.838;2023-04-03T11:20:33;8.50;90.00
37702;DHT22;23548;51.196;6.838;2023-04-03T11:23:08;8.40;91.20
37702;DHT22;23548;51.196;6.838;2023-04-03T11:25:39;8.70;90.10
37702;DHT22;23548;51.196;6.838;2023-04-03T11:28:12;8.80;87.50
37702;DHT22;23548;51.196;6.838;2023-04-03T11:30:58;9.00;84.40
37702;DHT22;23548;51.196;6.838;2023-04-03T11:33:30;8.60;80.10
37702;DHT22;23548;51.196;6.838;2023-04-03T11:36:09;8.70;82.10
37702;DHT22;23548;51.196;6.838;2023-04-03T11:38:38;8.70;82.80
37702;DHT22;23548;51.196;6.838;2023-04-03T11:41:08;8.90;81.70
37702;DHT22;23548;51.196;6.838;2023-04-03T11:43:40;8.90;79.30
37702;DHT22;23548;51.196;6.838;2023-04-03T11:46:10;8.90;83.80
37702;DHT22;23548;51.196;6.838;2023-04-03T11:48:43;8.90;77.50
37702;DHT22;23548;51.196;6.838;2023-04-03T11:53:46;9.10;79.80
37702;DHT22;23548;51.196;6.838;2023-04-03T12:01:53;9.20;78.10
37702;DHT22;23548;51.196;6.838;2023-04-03T12:04:22;9.50;78.40
37702;DHT22;23548;51.196;6.838;2023-04-03T12:12:31;9.50;74.40
37702;DHT22;23548;51.196;6.838;2023-04-03T12:15:38;9.50;73.10
37702;DHT22;23548;51.196;6.838;2023-04-03T12:18:43;9.40;72.70
37702;DHT22;23548;51.196;6.838;2023-04-03T12:21:11;9.50;71.20
37702;DHT22;23548;51.196;6.838;2023-04-03T12:24:42;9.70;72.90
37702;DHT22;23548;51.196;6.838;2023-04-03T12:29:34;9.70;72.50
37702;DHT22;23548;51.196;6.838;2023-04-03T12:35:27;9.50;71.70
37702;DHT22;23548;51.196;6.838;2023-04-03T12:45:50;9.70;71.00
37702;DHT22;23548;51.196;6.838;2023-04-03T12:48:20;9.50;71.50
37702;DHT22;23548;51.196;6.838;2023-04-03T12:50:49;9.50;72.40
37702;DHT22;23548;51.196;6.838;2023-04-03T12:53:19;9.30;71.00
37702;DHT22;23548;51.196;6.838;2023-04-03T12:55:49;9.50;73.80
37702;DHT22;23548;51.196;6.838;2023-04-03T12:58:26;9.40;72.00
37702;DHT22;23548;51.196;6.838;2023-04-03T13:01:01;9.60;74.10
37702;DHT22;23548;51.196;6.838;2023-04-03T13:03:28;9.50;73.20
37702;DHT22;23548;51.196;6.838;2023-04-03T13:05:59;9.60;73.90
37702;DHT22;23548;51.196;6.838;2023-04-03T13:08:25;9.80;72.60
37702;DHT22;23548;51.196;6.838;2023-04-03T13:11:00;9.80;73.80
37702;DHT22;23548;51.196;6.838;2023-04-03T13:13:26;9.80;75.60
37702;DHT22;23548;51.196;6.838;2023-04-03T13:15:53;10.00;77.40
37702;DHT22;23548;51.196;6.838;2023-04-03T13:18:34;10.00;75.40
37702;DHT22;23548;51.196;6.838;2023-04-03T13:21:25;10.00;74.10
37702;DHT22;23548;51.196;6.838;2023-04-03T13:23:55;9.90;75.70
37702;DHT22;23548;51.196;6.838;2023-04-03T13:26:24;9.90;74.50
37702;DHT22;23548;51.196;6.838;2023-04-03T13:28:52;9.90;76.30
37702;DHT22;23548;51.196;6.838;2023-04-03T13:31:23;10.00;78.20
37702;DHT22;23548;51.196;6.838;2023-04-03T13:34:11;10.10;75.50
37702;DHT22;23548;51.196;6.838;2023-04-03T13:36:50;10.20;75.30
37702;DHT22;23548;51.196;6.838;2023-04-03T13:39:30;10.40;75.40
37702;DHT22;23548;51.196;6.838;2023-04-03T13:42:20;10.00;71.70
37702;DHT22;23548;51.196;6.838;2023-04-03T13:44:48;10.30;77.00
37702;DHT22;23548;51.196;6.838;2023-04-03T13:47:16;10.40;76.50
37702;DHT22;23548;51.196;6.838;2023-04-03T13:50:00;10.50;74.40
37702;DHT22;23548;51.196;6.838;2023-04-03T13:52:54;10.40;75.50
37702;DHT22;23548;51.196;6.838;2023-04-03T13:58:03;11.90;74.90
37702;DHT22;23548;51.196;6.838;2023-04-03T14:03:44;14.80;66.20
37702;DHT22;23548;51.196;6.838;2023-04-03T14:06:13;15.00;64.40
37702;DHT22;23548;51.196;6.838;2023-04-03T14:08:39;15.20;62.00
37702;DHT22;23548;51.196;6.838;2023-04-03T14:11:05;16.00;60.20
37702;DHT22;23548;51.196;6.838;2023-04-03T14:13:32;15.70;59.00
37702;DHT22;23548;51.196;6.838;2023-04-03T14:15:57;14.70;62.60
37702;DHT22;23548;51.196;6.838;2023-04-03T14:18:23;13.40;62.70
37702;DHT22;23548;51.196;6.838;2023-04-03T14:20:49;14.90;60.00
37702;DHT22;23548;51.196;6.838;2023-04-03T14:23:15;15.90;59.40
37702;DHT22;23548;51.196;6.838;2023-04-03T14:25:41;14.70;59.90
37702;DHT22;23548;51.196;6.838;2023-04-03T14:28:22;14.80;59.80
37702;DHT22;23548;51.196;6.838;2023-04-03T14:30:50;15.80;58.00
37702;DHT22;23548;51.196;6.838;2023-04-03T14:33:21;14.70;58.20
37702;DHT22;23548;51.196;6.838;2023-04-03T14:35:48;14.60;59.30
37702;DHT22;23548;51.196;6.838;2023-04-03T14:38:28;15.70;58.30
37702;DHT22;23548;51.196;6.838;2023-04-03T14:40:55;15.80;56.60
37702;DHT22;23548;51.196;6.838;2023-04-03T14:43:21;15.10;57.10
37702;DHT22;23548;51.196;6.838;2023-04-03T14:45:48;15.40;57.60
37702;DHT22;23548;51.196;6.838;2023-04-03T14:48:22;15.90;56.20
37702;DHT22;23548;51.196;6.838;2023-04-03T14:50:49;16.40;56.10
37702;DHT22;23548;51.196;6.838;2023-04-03T14:53:16;15.90;56.90
37702;DHT22;23548;51.196;6.838;2023-04-03T14:55:45;16.30;56.30
37702;DHT22;23548;51.196;6.838;2023-04-03T14:58:16;16.20;55.30
37702;DHT22;23548;51.196;6.838;2023-04-03T15:00:42;16.30;55.00
37702;DHT22;23548;51.196;6.838;2023-04-03T15:03:14;16.70;54.40
37702;DHT22;23548;51.196;6.838;2023-04-03T15:05:41;15.80;55.20
37702;DHT22;23548;51.196;6.838;2023-04-03T15:08:17;16.40;54.40
37702;DHT22;23548;51.196;6.838;2023-04-03T15:10:44;16.10;54.10
37702;DHT22;23548;51.196;6.838;2023-04-03T15:13:12;15.80;55.40
37702;DHT22;23548;51.196;6.838;2023-04-03T15:15:38;15.50;55.30
37702;DHT22;23548;51.196;6.838;2023-04-03T15:18:03;16.20;54.60
37702;DHT22;23548;51.196;6.838;2023-04-03T15:20:31;15.90;54.90
37702;DHT22;23548;51.196;6.838;2023-04-03T15:22:59;15.80;54.30
37702;DHT22;23548;51.196;6.838;2023-04-03T15:25:28;15.80;55.10
37702;DHT22;23548;51.196;6.838;2023-04-03T15:27:56;16.20;54.60
37702;DHT22;23548;51.196;6.838;2023-04-03T15:30:22;16.60;53.30
37702;DHT22;23548;51.196;6.838;2023-04-03T15:32:48;17.30;52.10
37702;DHT22;23548;51.196;6.838;2023-04-03T15:35:15;16.60;53.10
37702;DHT22;23548;51.196;6.838;2023-04-03T15:37:41;16.20;54.10
37702;DHT22;23548;51.196;6.838;2023-04-03T15:40:07;15.10;55.50
37702;DHT22;23548;51.196;6.838;2023-04-03T15:42:34;16.00;53.60
37702;DHT22;23548;51.196;6.838;2023-04-03T15:45:00;15.60;53.30
37702;DHT22;23548;51.196;6.838;2023-04-03T15:47:26;15.30;54.20
37702;DHT22;23548;51.196;6.838;2023-04-03T15:49:53;15.20;54.30
37702;DHT22;23548;51.196;6.838;2023-04-03T15:52:20;15.00;54.50
37702;DHT22;23548;51.196;6.838;2023-04-03T15:54:46;14.00;55.90
37702;DHT22;23548;51.196;6.838;2023-04-03T15:57:12;12.50;59.00
37702;DHT22;23548;51.196;6.838;2023-04-03T15:59:38;11.30;60.80
37702;DHT22;23548;51.196;6.838;2023-04-03T16:02:06;10.70;61.70
37702;DHT22;23548;51.196;6.838;2023-04-03T16:04:33;10.30;63.20
37702;DHT22;23548;51.196;6.838;2023-04-03T16:07:03;9.90;65.50
37702;DHT22;23548;51.196;6.838;2023-04-03T16:09:30;9.80;65.70
37702;DHT22;23548;51.196;6.838;2023-04-03T16:11:56;9.70;66.60
37702;DHT22;23548;51.196;6.838;2023-04-03T16:14:22;9.80;65.60
37702;DHT22;23548;51.196;6.838;2023-04-03T16:16:48;9.80;66.00
37702;DHT22;23548;51.196;6.838;2023-04-03T16:19:15;9.70;65.90
37702;DHT22;23548;51.196;6.838;2023-04-03T16:21:41;9.70;67.20
37702;DHT22;23548;51.196;6.838;2023-04-03T16:24:06;9.60;67.40
37702;DHT22;23548;51.196;6.838;2023-04-03T16:26:32;9.60;68.30
37702;DHT22;23548;51.196;6.838;2023-04-03T16:28:58;9.40;69.20
37702;DHT22;23548;51.196;6.838;2023-04-03T16:31:25;9.30;68.40
37702;DHT22;23548;51.196;6.838;2023-04-03T16:33:51;9.30;68.10
37702;DHT22;23548;51.196;6.838;2023-04-03T16:36:17;9.10;68.50
37702;DHT22;23548;51.196;6.838;2023-04-03T16:38:43;9.20;69.00
37702;DHT22;23548;51.196;6.838;2023-04-03T16:41:09;9.20;68.90
37702;DHT22;23548;51.196;6.838;2023-04-03T16:43:36;9.10;70.70
37702;DHT22;23548;51.196;6.838;2023-04-03T16:46:02;8.90;69.50
37702;DHT22;23548;51.196;6.838;2023-04-03T16:48:29;9.00;71.10
37702;DHT22;23548;51.196;6.838;2023-04-03T16:50:55;9.00;71.90
37702;DHT22;23548;51.196;6.838;2023-04-03T16:53:21;9.00;71.20
37702;DHT22;23548;51.196;6.838;2023-04-03T16:55:48;9.00;70.80
37702;DHT22;23548;51.196;6.838;2023-04-03T16:58:13;8.90;71.30
37702;DHT22;23548;51.196;6.838;2023-04-03T17:00:41;8.90;70.90
37702;DHT22;23548;51.196;6.838;2023-04-03T17:03:07;8.80;72.30
37702;DHT22;23548;51.196;6.838;2023-04-03T17:05:33;8.70;72.80
37702;DHT22;23548;51.196;6.838;2023-04-03T17:07:59;8.60;72.80
37702;DHT22;23548;51.196;6.838;2023-04-03T17:10:27;8.70;72.00
37702;DHT22;23548;51.196;6.838;2023-04-03T17:12:53;8.90;71.50
37702;DHT22;23548;51.196;6.838;2023-04-03T17:15:19;8.90;72.50